Time;durP1;ratioP1;P1;durP2;ratioP2;P2;SDS_P1;SDS_P2;PMS_P1;PMS_P2;Temp;Humidity;BMP_temperature;BMP_pressure;BME280_temperature;BME280_humidity;BME280_pressure;Samples;Min_cycle;Max_cycle;Signal;HPM_P1;HPM_P2
2023/10/10 00:00:47;;;;;;;8.05;5.03;;;14.70;99.90;;;;;;6232403;23;20012;-83
2023/10/10 00:03:14;;;;;;;9.38;5.40;;;14.70;99.90;;;;;;6207221;23;20020;-82
2023/10/10 00:05:40;;;;;;;8.43;5.78;;;14.70;99.90;;;;;;6206774;23;20012;-83
2023/10/10 00:08:09;;;;;;;8.25;5.10;;;14.70;99.90;;;;;;6206043;23;20081;-83
2023/10/10 00:10:36;;;;;;;10.48;5.30;;;14.70;99.90;;;;;;6207836;23;20129;-83
2023/10/10 00:13:04;;;;;;;10.10;5.35;;;14.70;99.90;;;;;;6231471;23;20023;-83
2023/10/10 00:15:38;;;;;;;8.50;4.70;;;14.70;99.90;;;;;;6207258;23;20027;-83
2023/10/10 00:18:07;;;;;;;7.07;4.60;;;14.60;99.90;;;;;;6206632;23;20008;-83
2023/10/10 00:20:41;;;;;;;12.13;5.35;;;14.60;99.90;;;;;;6206504;23;20016;-83
2023/10/10 00:23:16;;;;;;;8.85;5.35;;;14.60;99.90;;;;;;6205505;23;20019;-83
2023/10/10 00:25:45;;;;;;;6.35;5.05;;;14.70;99.90;;;;;;6232947;23;20019;-83
2023/10/10 00:28:21;;;;;;;9.52;4.97;;;14.70;99.90;;;;;;6205505;23;20465;-83
2023/10/10 00:30:47;;;;;;;10.38;5.43;;;14.80;99.90;;;;;;6232302;23;20364;-82
2023/10/10 00:33:16;;;;;;;13.50;5.38;;;14.70;99.90;;;;;;6206826;23;20024;-83
2023/10/10 00:35:44;;;;;;;8.98;6.20;;;14.70;99.90;;;;;;6232555;23;20012;-83
2023/10/10 00:38:19;;;;;;;10.65;6.35;;;14.80;99.90;;;;;;6205869;23;20012;-83
2023/10/10 00:41:16;;;;;;;10.93;6.45;;;14.80;99.90;;;;;;6232729;23;20072;-83
2023/10/10 00:43:42;;;;;;;10.45;6.30;;;14.80;99.90;;;;;;6231247;23;20016;-83
2023/10/10 00:46:11;;;;;;;11.35;8.00;;;14.80;99.90;;;;;;6207077;23;20095;-82
2023/10/10 00:48:44;;;;;;;11.52;7.85;;;14.80;99.90;;;;;;6207829;23;20015;-82
2023/10/10 00:51:20;;;;;;;14.77;8.77;;;14.90;99.90;;;;;;6209410;23;20077;-83
2023/10/10 00:54:08;;;;;;;11.38;7.20;;;14.90;99.90;;;;;;6207484;23;20109;-83
2023/10/10 00:56:35;;;;;;;10.88;7.07;;;14.90;99.90;;;;;;6233844;23;20437;-82
2023/10/10 00:59:03;;;;;;;12.43;7.35;;;14.80;99.90;;;;;;6233649;23;20019;-82
2023/10/10 01:01:29;;;;;;;12.13;8.18;;;14.80;99.90;;;;;;6208786;23;20449;-83
2023/10/10 01:03:57;;;;;;;13.55;7.60;;;14.90;99.90;;;;;;6208350;23;20020;-83
2023/10/10 01:06:26;;;;;;;11.32;7.70;;;14.90;99.90;;;;;;6234476;23;20293;-83
2023/10/10 01:09:04;;;;;;;14.07;8.77;;;14.90;99.90;;;;;;6207768;23;20297;-83
2023/10/10 01:11:30;;;;;;;17.00;9.18;;;14.90;99.90;;;;;;6208757;23;20012;-83
2023/10/10 01:13:59;;;;;;;13.77;8.90;;;14.90;99.90;;;;;;6208144;23;20106;-83
2023/10/10 01:16:27;;;;;;;15.63;8.68;;;14.90;99.90;;;;;;6234163;23;20016;-83
2023/10/10 01:18:57;;;;;;;14.38;8.80;;;14.90;99.90;;;;;;6207606;23;20431;-82
2023/10/10 01:21:31;;;;;;;14.25;8.32;;;14.90;99.90;;;;;;6234716;23;20012;-82
2023/10/10 01:24:05;;;;;;;12.90;7.90;;;14.90;99.90;;;;;;6207012;23;20016;-83
2023/10/10 01:26:33;;;;;;;9.40;7.60;;;14.90;99.90;;;;;;6233056;23;20330;-83
2023/10/10 01:29:12;;;;;;;13.73;8.60;;;14.90;99.90;;;;;;6207711;23;20436;-83
2023/10/10 01:31:38;;;;;;;14.68;8.18;;;15.00;99.90;;;;;;6208962;23;20016;-83
2023/10/10 01:34:08;;;;;;;14.95;8.48;;;15.00;99.90;;;;;;6233477;23;20512;-83
2023/10/10 01:36:34;;;;;;;13.10;8.27;;;15.00;99.90;;;;;;6209259;23;20027;-83
2023/10/10 01:39:19;;;;;;;12.77;8.75;;;15.00;99.90;;;;;;6232135;23;20244;-82
2023/10/10 01:41:48;;;;;;;11.20;8.23;;;15.00;99.90;;;;;;6208235;23;20060;-83
2023/10/10 01:44:23;;;;;;;11.98;8.60;;;15.00;99.90;;;;;;6233208;23;20008;-83
2023/10/10 01:46:52;;;;;;;16.88;8.52;;;15.00;99.90;;;;;;6233502;23;20084;-83
2023/10/10 01:49:21;;;;;;;12.50;9.00;;;15.00;99.90;;;;;;6233589;23;20032;-82
2023/10/10 01:51:55;;;;;;;13.00;8.63;;;15.00;99.90;;;;;;6208804;23;20396;-83
2023/10/10 01:54:23;;;;;;;12.48;8.30;;;15.00;99.90;;;;;;6231946;23;20215;-82
2023/10/10 01:56:51;;;;;;;13.43;7.53;;;15.00;99.90;;;;;;6208265;23;20035;-83
2023/10/10 01:59:24;;;;;;;15.27;8.48;;;15.10;99.90;;;;;;6207501;23;20012;-82
2023/10/10 02:01:52;;;;;;;13.10;7.95;;;15.10;99.90;;;;;;6208388;23;20019;-83
2023/10/10 02:04:27;;;;;;;11.32;7.32;;;15.10;99.90;;;;;;6208049;23;20206;-82
2023/10/10 02:06:57;;;;;;;12.05;7.45;;;15.10;99.90;;;;;;6208406;23;20400;-83
2023/10/10 02:11:55;;;;;;;10.65;7.03;;;15.10;99.90;;;;;;6233463;23;20123;-83
2023/10/10 02:14:30;;;;;;;11.27;6.93;;;15.10;99.90;;;;;;6207144;23;20015;-83
2023/10/10 02:17:06;;;;;;;15.25;7.97;;;15.20;99.90;;;;;;6208318;23;20027;-83
2023/10/10 02:19:38;;;;;;;11.82;7.25;;;15.20;99.90;;;;;;6207833;23;20020;-83
2023/10/10 02:22:23;;;;;;;14.00;6.70;;;15.20;99.90;;;;;;6207658;23;20309;-83
2023/10/10 02:24:51;;;;;;;12.73;6.25;;;15.10;99.90;;;;;;6207950;23;20424;-83
2023/10/10 02:27:22;;;;;;;14.32;6.38;;;15.20;99.90;;;;;;6207206;23;20461;-83
2023/10/10 02:29:48;;;;;;;12.55;6.63;;;15.20;99.90;;;;;;6208234;23;20122;-82
2023/10/10 02:32:19;;;;;;;12.02;6.38;;;15.20;99.90;;;;;;6207146;23;20088;-83
2023/10/10 02:34:55;;;;;;;10.27;6.63;;;15.20;99.90;;;;;;6206492;23;20020;-83
2023/10/10 02:40:12;;;;;;;8.35;6.00;;;15.20;99.90;;;;;;6233047;23;20031;-83
2023/10/10 02:42:37;;;;;;;10.95;6.15;;;15.20;99.90;;;;;;6231807;23;20023;-82
2023/10/10 02:45:04;;;;;;;10.80;6.80;;;15.20;99.90;;;;;;6183342;23;20015;-83
2023/10/10 02:47:32;;;;;;;11.07;6.28;;;15.20;99.90;;;;;;6207384;23;20122;-82
2023/10/10 02:50:40;;;;;;;10.10;6.20;;;15.20;99.90;;;;;;6233264;23;20491;-83
2023/10/10 02:53:07;;;;;;;11.68;6.13;;;15.20;99.90;;;;;;6231985;23;20031;-83
2023/10/10 02:55:50;;;;;;;11.30;5.97;;;15.20;99.90;;;;;;6233034;23;20062;-82
2023/10/10 02:58:27;;;;;;;12.40;6.07;;;15.20;99.90;;;;;;6207149;23;20020;-82
2023/10/10 03:00:57;;;;;;;10.65;5.57;;;15.20;99.90;;;;;;6231750;23;20413;-82
2023/10/10 03:03:24;;;;;;;8.68;5.75;;;15.20;99.90;;;;;;6232026;23;20016;-82
2023/10/10 03:05:50;;;;;;;10.40;5.28;;;15.20;99.90;;;;;;6233704;23;20330;-83
2023/10/10 03:11:01;;;;;;;8.60;5.35;;;15.20;99.90;;;;;;6232648;23;20015;-83
2023/10/10 03:13:35;;;;;;;7.63;4.80;;;15.30;99.90;;;;;;6231662;23;20099;-83
2023/10/10 03:19:12;;;;;;;8.30;5.20;;;15.20;99.90;;;;;;6171122;23;20043;-82
2023/10/10 03:29:20;;;;;;;9.55;4.60;;;15.30;99.90;;;;;;6232446;23;20028;-83
2023/10/10 03:32:18;;;;;;;8.40;5.10;;;15.20;99.90;;;;;;6207596;23;20019;-83
2023/10/10 03:34:44;;;;;;;9.85;4.75;;;15.20;99.90;;;;;;6233024;23;20029;-83
2023/10/10 03:39:58;;;;;;;7.90;4.63;;;15.30;99.90;;;;;;6233297;23;20401;-83
2023/10/10 05:25:08;;;;;;;23.45;12.70;;;15.00;99.90;;;;;;6235538;23;20020;-83
2023/10/10 05:27:41;;;;;;;24.08;13.98;;;14.90;99.90;;;;;;6234474;23;20012;-83
2023/10/10 05:30:23;;;;;;;20.40;13.32;;;14.90;99.90;;;;;;6210767;23;20019;-83
2023/10/10 05:33:01;;;;;;;26.08;14.18;;;14.90;99.90;;;;;;6208327;23;20020;-83
2023/10/10 05:35:38;;;;;;;24.15;14.55;;;14.80;99.90;;;;;;6207543;23;20056;-82
2023/10/10 05:38:07;;;;;;;25.27;13.85;;;14.90;99.90;;;;;;6208023;23;20099;-83
2023/10/10 05:40:33;;;;;;;20.25;13.60;;;14.80;99.90;;;;;;6233550;23;20473;-83
2023/10/10 05:43:03;;;;;;;25.52;13.55;;;14.90;99.90;;;;;;6206387;23;20012;-82
2023/10/10 05:45:29;;;;;;;27.17;13.80;;;14.80;99.90;;;;;;6233231;23;20095;-83
2023/10/10 05:47:55;;;;;;;26.40;14.05;;;14.80;99.90;;;;;;6208501;23;20035;-83
2023/10/10 05:50:22;;;;;;;23.38;13.48;;;14.80;99.90;;;;;;6208240;23;20012;-83
2023/10/10 05:52:48;;;;;;;23.67;13.95;;;14.80;99.90;;;;;;6231870;23;20019;-83
2023/10/10 05:55:15;;;;;;;26.67;13.75;;;14.80;99.90;;;;;;6207309;23;20072;-83
2023/10/10 05:57:41;;;;;;;28.05;14.23;;;14.80;99.90;;;;;;6231342;23;20019;-83
2023/10/10 06:00:12;;;;;;;28.02;16.10;;;14.80;99.90;;;;;;6206985;23;20046;-83
2023/10/10 06:02:38;;;;;;;25.52;14.57;;;14.80;99.90;;;;;;6206129;23;20166;-83
2023/10/10 06:05:05;;;;;;;25.38;15.23;;;14.80;99.90;;;;;;6207623;23;20582;-83
2023/10/10 06:07:32;;;;;;;25.17;14.98;;;14.80;99.90;;;;;;6206631;23;20020;-83
2023/10/10 06:09:58;;;;;;;24.23;14.65;;;14.80;99.90;;;;;;6232235;23;20064;-83
2023/10/10 06:12:24;;;;;;;28.35;14.32;;;14.80;99.90;;;;;;6231481;23;20051;-82
2023/10/10 06:14:54;;;;;;;27.60;15.13;;;14.80;99.90;;;;;;6207676;23;20055;-83
2023/10/10 06:17:21;;;;;;;29.65;15.25;;;14.80;99.90;;;;;;6206583;23;20019;-83
2023/10/10 06:19:47;;;;;;;26.45;14.45;;;14.80;99.90;;;;;;6206838;23;20440;-83
2023/10/10 06:22:15;;;;;;;30.27;16.02;;;14.90;99.90;;;;;;6205066;23;20097;-83
2023/10/10 06:24:43;;;;;;;26.27;15.35;;;14.90;99.90;;;;;;6206956;23;20040;-83
2023/10/10 06:27:13;;;;;;;26.42;15.68;;;14.90;99.90;;;;;;6205159;23;20019;-83
2023/10/10 06:29:40;;;;;;;30.15;17.33;;;15.00;99.90;;;;;;6207613;23;20020;-83
2023/10/10 06:32:15;;;;;;;29.83;16.23;;;15.00;99.90;;;;;;6206491;23;20020;-83
2023/10/10 06:34:45;;;;;;;24.55;15.00;;;15.00;99.90;;;;;;6206692;23;20345;-83
2023/10/10 06:37:11;;;;;;;29.90;15.30;;;15.10;99.90;;;;;;6232027;23;20570;-83
2023/10/10 06:39:55;;;;;;;28.10;14.90;;;15.10;99.90;;;;;;6206519;23;20020;-83
2023/10/10 06:42:27;;;;;;;25.55;15.02;;;15.20;99.90;;;;;;6230633;23;20235;-83
2023/10/10 06:45:01;;;;;;;30.35;15.95;;;15.30;99.90;;;;;;6231994;23;20314;-83
2023/10/10 06:47:28;;;;;;;28.08;16.00;;;15.40;99.90;;;;;;6206153;23;20216;-83
2023/10/10 06:49:54;;;;;;;25.92;15.18;;;15.40;99.90;;;;;;6206826;23;20051;-83
2023/10/10 06:52:21;;;;;;;25.83;15.90;;;15.50;99.90;;;;;;6229880;23;20412;-83
2023/10/10 06:54:56;;;;;;;27.73;16.17;;;15.50;99.90;;;;;;6206240;23;20016;-83
2023/10/10 06:57:35;;;;;;;28.70;16.05;;;15.60;99.90;;;;;;6206505;23;20164;-83
2023/10/10 07:00:09;;;;;;;31.05;16.25;;;15.60;99.90;;;;;;6231980;23;20107;-83
2023/10/10 07:02:40;;;;;;;25.25;16.38;;;15.60;99.90;;;;;;6231502;23;20400;-83
2023/10/10 07:05:07;;;;;;;28.40;18.35;;;15.70;99.90;;;;;;6232383;23;20019;-84
2023/10/10 07:07:37;;;;;;;25.42;15.85;;;15.70;99.90;;;;;;6206159;23;20024;-83
2023/10/10 07:10:09;;;;;;;27.35;16.55;;;15.80;99.90;;;;;;6206598;23;20027;-83
2023/10/10 07:12:35;;;;;;;25.80;16.30;;;15.90;99.90;;;;;;6205808;23;20016;-83
2023/10/10 07:15:06;;;;;;;25.20;14.77;;;16.00;99.90;;;;;;6207209;23;20050;-84
2023/10/10 07:17:32;;;;;;;23.95;15.20;;;16.00;99.90;;;;;;6206234;23;20023;-83
2023/10/10 07:22:33;;;;;;;30.05;15.93;;;16.10;99.90;;;;;;6230480;23;20350;-83
2023/10/10 07:25:18;;;;;;;26.05;15.15;;;16.10;99.90;;;;;;6206642;23;20016;-83
2023/10/10 07:27:44;;;;;;;24.95;15.60;;;16.20;99.90;;;;;;6204762;23;20016;-83
2023/10/10 07:30:16;;;;;;;25.52;15.70;;;16.40;99.90;;;;;;6232122;23;20023;-84
2023/10/10 07:32:48;;;;;;;25.48;15.32;;;16.30;99.90;;;;;;6204577;23;20024;-84
2023/10/10 07:35:15;;;;;;;25.38;16.60;;;16.30;99.90;;;;;;6206138;23;20012;-83
2023/10/10 07:37:43;;;;;;;29.13;15.90;;;16.30;99.90;;;;;;6205120;23;20039;-83
2023/10/10 07:42:37;;;;;;;28.52;17.05;;;16.30;99.90;;;;;;6230489;23;20578;-83
2023/10/10 07:45:13;;;;;;;32.17;18.33;;;16.30;99.90;;;;;;6206629;23;20016;-83
2023/10/10 07:50:26;;;;;;;33.47;20.63;;;16.50;99.90;;;;;;6231725;23;20099;-83
2023/10/10 08:21:48;;;;;;;;;;;;;;;;;;;;;
2023/10/10 08:24:19;;;;;;;34.35;19.90;;;18.00;99.90;;;;;;6118523;23;20445;-84
2023/10/10 08:27:09;;;;;;;31.98;20.77;;;18.00;99.90;;;;;;6142772;23;20613;-84
2023/10/10 08:30:25;;;;;;;31.05;19.83;;;18.00;99.90;;;;;;6143525;23;20021;-84
2023/10/10 08:33:09;;;;;;;33.70;19.77;;;18.30;99.90;;;;;;6149857;23;20081;-84
2023/10/10 08:36:56;;;;;;;;;;;;;;;;;;;;;
2023/10/10 08:44:29;;;;;;;;;;;;;;;;;;;;;
2023/10/10 08:51:49;;;;;;;34.60;22.52;;;18.50;99.90;;;;;;5992086;23;20143;-84
2023/10/10 08:54:24;;;;;;;37.95;22.20;;;18.50;99.90;;;;;;5934664;24;20099;-84
2023/10/10 08:57:27;;;;;;;35.35;22.67;;;18.70;99.90;;;;;;5919958;24;20505;-84
2023/10/10 09:00:30;;;;;;;37.38;24.05;;;18.60;99.90;;;;;;5916425;24;20028;-84
2023/10/10 09:10:32;;;;;;;;;;;;;;;;;;;;;
2023/10/10 09:13:31;;;;;;;40.33;24.00;;;18.70;99.90;;;;;;5993440;23;20024;-84
2023/10/10 09:20:09;;;;;;;38.00;23.33;;;18.70;99.90;;;;;;6069896;23;20024;-84
2023/10/10 09:23:25;;;;;;;39.67;23.50;;;18.90;99.90;;;;;;6207983;23;20034;-85
2023/10/10 09:30:09;;;;;;;43.80;25.42;;;19.30;99.90;;;;;;6052817;23;20015;-84
2023/10/10 09:37:43;;;;;;;40.53;24.27;;;19.20;99.90;;;;;;6080161;23;20360;-84
2023/10/10 09:54:18;;;;;;;42.10;24.33;;;19.70;99.90;;;;;;6026649;23;20027;-84
2023/10/10 10:01:29;;;;;;;;;;;;;;;;;;;;;
2023/10/10 10:04:28;;;;;;;41.33;23.58;;;19.70;99.90;;;;;;6018045;23;20025;-84
2023/10/10 10:07:56;;;;;;;39.40;23.67;;;19.80;99.90;;;;;;6051684;23;20015;-84
2023/10/10 10:39:19;;;;;;;35.42;18.15;;;20.40;99.90;;;;;;5874980;24;20194;-84
2023/10/10 11:36:29;;;;;;;24.42;13.52;;;21.40;99.90;;;;;;6245231;23;20293;-87
2023/10/10 11:38:56;;;;;;;26.25;13.65;;;21.80;99.90;;;;;;6195112;23;20467;-86
2023/10/10 11:41:35;;;;;;;27.88;16.33;;;21.30;99.90;;;;;;6175140;23;20497;-87
2023/10/10 11:44:03;;;;;;;27.25;15.68;;;21.30;99.90;;;;;;6175039;23;20445;-87
2023/10/10 11:46:30;;;;;;;26.30;15.93;;;21.50;99.90;;;;;;6203581;23;20012;-86
2023/10/10 11:49:02;;;;;;;24.48;14.48;;;21.80;99.90;;;;;;6228251;23;20012;-87
2023/10/10 11:51:38;;;;;;;26.40;16.42;;;22.10;99.90;;;;;;6179278;23;20115;-86
2023/10/10 11:54:04;;;;;;;25.77;16.25;;;22.10;99.90;;;;;;6203069;23;20016;-87
2023/10/10 11:56:34;;;;;;;29.02;16.33;;;22.00;99.90;;;;;;6178062;23;20430;-87
2023/10/10 11:59:10;;;;;;;28.38;16.30;;;21.90;99.90;;;;;;6176513;23;20016;-86
2023/10/10 12:04:38;;;;;;;26.95;16.52;;;21.70;99.90;;;;;;6229040;23;20117;-87
2023/10/10 12:07:05;;;;;;;26.63;15.50;;;22.20;99.90;;;;;;6179193;23;20019;-86
2023/10/10 12:09:31;;;;;;;22.13;14.75;;;22.30;99.90;;;;;;6178412;23;20255;-87
2023/10/10 12:12:02;;;;;;;26.17;16.15;;;22.70;99.90;;;;;;6179045;23;20092;-87
2023/10/10 12:51:34;;;;;;;20.63;11.40;;;23.40;99.90;;;;;;5483083;22;18088161;-84
2023/10/10 12:59:18;;;;;;;22.90;13.75;;;22.80;99.90;;;;;;6142655;23;20022;-83
2023/10/10 13:09:55;;;;;;;23.27;11.73;;;22.30;99.90;;;;;;6111840;23;20315;-84
2023/10/10 13:21:02;;;;;;;22.42;13.23;;;23.20;99.90;;;;;;5972262;23;20032;-84
2023/10/10 13:38:49;;;;;;;;;;;;;;;;;;;;;
2023/10/10 13:53:55;;;;;;;22.90;13.35;;;22.10;99.90;;;;;;4789646;29;20295;-85
2023/10/10 14:04:23;;;;;;;;;;;;;;;;;;;;;
2023/10/10 14:10:41;;;;;;;16.33;10.88;;;22.50;99.90;;;;;;4718117;30;20076;-85
2023/10/10 14:13:48;;;;;;;19.25;11.07;;;22.30;99.90;;;;;;4785292;29;20472;-85
2023/10/10 14:17:03;;;;;;;20.23;11.90;;;22.30;99.90;;;;;;4810232;29;20449;-86
2023/10/10 14:19:32;;;;;;;;;;;22.10;99.90;;;;;;4846869;29;20188;-86
2023/10/10 14:22:28;;;;;;;16.48;11.10;;;22.10;99.90;;;;;;4853463;28;20301;-85
2023/10/10 14:24:54;;;;;;;20.10;12.35;;;22.20;99.90;;;;;;4932814;28;20058;-85
2023/10/10 14:31:46;;;;;;;18.77;12.57;;;22.10;99.90;;;;;;4926861;29;20059;-85
2023/10/10 14:43:57;;;;;;;18.50;13.15;;;21.60;99.90;;;;;;4812526;29;20129;-85
2023/10/10 15:35:56;;;;;;;24.42;14.27;;;20.50;99.90;;;;;;6185699;22;1847595;-88
2023/10/10 15:38:23;;;;;;;24.25;14.90;;;20.50;99.90;;;;;;6247722;22;20019;-88
2023/10/10 15:40:49;;;;;;;22.90;14.73;;;20.40;99.90;;;;;;6248417;22;20042;-88
2023/10/10 15:43:15;;;;;;;21.17;14.05;;;20.20;99.90;;;;;;6271453;22;20357;-88
2023/10/10 15:45:47;;;;;;;20.98;13.35;;;20.10;99.90;;;;;;6244704;22;20038;-88
2023/10/10 15:48:23;;;;;;;22.20;14.27;;;20.10;99.90;;;;;;6245649;22;20098;-88
2023/10/10 15:50:53;;;;;;;20.73;13.10;;;20.00;99.90;;;;;;6273794;22;20019;-88
2023/10/10 15:53:25;;;;;;;23.85;14.60;;;19.90;99.90;;;;;;6272478;22;20077;-88
2023/10/10 15:58:39;;;;;;;20.83;12.63;;;19.80;99.90;;;;;;6279120;22;20026;-88
2023/10/10 16:01:29;;;;;;;23.83;14.10;;;19.60;99.90;;;;;;6278856;22;20019;-85
2023/10/10 16:04:00;;;;;;;20.73;13.50;;;19.60;99.90;;;;;;6252672;22;20392;-85
2023/10/10 16:06:29;;;;;;;20.77;12.85;;;19.60;99.90;;;;;;6255406;22;20023;-89
2023/10/10 16:08:58;;;;;;;22.20;13.68;;;19.60;99.90;;;;;;6271039;22;20046;-85
2023/10/10 16:11:31;;;;;;;21.92;14.45;;;19.40;99.90;;;;;;6270119;22;20458;-84
2023/10/10 16:13:57;;;;;;;22.73;14.27;;;19.30;99.90;;;;;;6247074;22;20455;-85
2023/10/10 16:16:23;;;;;;;22.10;13.77;;;19.40;99.90;;;;;;6247194;22;20076;-85
2023/10/10 16:18:54;;;;;;;20.98;13.52;;;19.20;99.90;;;;;;6272237;22;20098;-85
2023/10/10 16:21:20;;;;;;;20.67;12.98;;;19.10;99.90;;;;;;6240275;22;20019;-85
2023/10/10 16:23:45;;;;;;;30.60;10.05;;;19.10;99.90;;;;;;6238763;22;20023;-85
2023/10/10 16:26:14;;;;;;;19.95;12.52;;;19.10;99.90;;;;;;6241100;22;20587;-85
2023/10/10 16:28:41;;;;;;;22.52;13.70;;;19.00;99.90;;;;;;6239301;22;20098;-85
2023/10/10 16:31:10;;;;;;;19.35;13.23;;;19.00;99.90;;;;;;6239665;22;20360;-84
2023/10/10 16:33:37;;;;;;;19.10;12.40;;;18.90;99.90;;;;;;6238552;22;20920;-85
2023/10/10 16:36:08;;;;;;;20.63;12.70;;;18.90;99.90;;;;;;6265219;22;20011;-85
2023/10/10 16:38:35;;;;;;;18.63;12.60;;;18.80;99.90;;;;;;6263338;22;20337;-85
2023/10/10 16:41:06;;;;;;;21.20;12.10;;;18.70;99.90;;;;;;6291633;22;20443;-84
2023/10/10 16:43:36;;;;;;;20.42;12.38;;;18.60;99.90;;;;;;6263907;22;20096;-85
2023/10/10 16:46:03;;;;;;;22.25;13.02;;;18.60;99.90;;;;;;6290491;22;20019;-84
2023/10/10 16:48:31;;;;;;;18.60;12.02;;;18.50;99.90;;;;;;6264979;22;20472;-84
2023/10/10 16:51:01;;;;;;;19.67;11.60;;;18.50;99.90;;;;;;6265735;22;20391;-85
2023/10/10 16:53:28;;;;;;;21.65;11.98;;;18.40;99.90;;;;;;6264353;22;20015;-84
2023/10/10 16:56:06;;;;;;;17.55;12.05;;;18.30;99.90;;;;;;6265129;22;20533;-85
2023/10/10 16:58:39;;;;;;;29.67;12.02;;;18.30;99.90;;;;;;6265106;22;20444;-85
2023/10/10 17:01:12;;;;;;;25.00;13.82;;;18.30;99.90;;;;;;6292459;22;20015;-84
2023/10/10 17:03:48;;;;;;;19.60;12.50;;;18.20;99.90;;;;;;6265563;22;20699;-84
2023/10/10 17:06:22;;;;;;;18.35;12.07;;;18.20;99.90;;;;;;6268210;22;20455;-88
2023/10/10 17:08:48;;;;;;;20.08;12.90;;;18.10;99.90;;;;;;6292127;22;20438;-88
2023/10/10 17:11:17;;;;;;;17.17;12.02;;;18.10;99.90;;;;;;6267216;22;20022;-88
2023/10/10 17:13:43;;;;;;;19.33;12.85;;;18.10;99.90;;;;;;6267120;22;20380;-88
2023/10/10 17:16:25;;;;;;;19.55;12.20;;;18.00;99.90;;;;;;6293122;22;20340;-88
2023/10/10 17:18:52;;;;;;;21.23;13.32;;;18.00;99.90;;;;;;6292353;22;20015;-88
2023/10/10 17:21:18;;;;;;;18.88;13.20;;;17.90;99.90;;;;;;6292508;22;20026;-89
2023/10/10 17:23:48;;;;;;;18.08;13.35;;;17.90;99.90;;;;;;6264291;22;20423;-88
2023/10/10 17:26:20;;;;;;;21.92;13.88;;;17.90;99.90;;;;;;6291952;22;20478;-88
2023/10/10 17:28:49;;;;;;;19.13;13.60;;;17.90;99.90;;;;;;6291106;22;20117;-88
2023/10/10 17:31:19;;;;;;;20.70;13.07;;;17.90;99.90;;;;;;6291572;22;20452;-88
2023/10/10 17:33:46;;;;;;;22.70;13.30;;;17.90;99.90;;;;;;6266066;22;20011;-88
2023/10/10 17:36:12;;;;;;;19.85;13.70;;;17.80;99.90;;;;;;6269911;22;20094;-87
2023/10/10 17:38:38;;;;;;;21.17;13.52;;;17.80;99.90;;;;;;6268912;22;20046;-88
2023/10/10 17:41:05;;;;;;;21.98;13.50;;;17.80;99.90;;;;;;6270655;22;20436;-88
2023/10/10 17:43:34;;;;;;;18.25;13.23;;;17.70;99.90;;;;;;6294785;22;20320;-88
2023/10/10 17:46:00;;;;;;;23.00;13.93;;;17.70;99.90;;;;;;6294779;22;20029;-88
2023/10/10 17:48:31;;;;;;;21.23;13.35;;;17.70;99.90;;;;;;6268959;22;20019;-87
2023/10/10 17:50:58;;;;;;;21.00;13.27;;;17.70;99.90;;;;;;6270063;22;20021;-88
2023/10/10 17:53:24;;;;;;;23.38;13.35;;;17.60;99.90;;;;;;6268054;22;20634;-87
2023/10/10 17:55:54;;;;;;;21.08;14.25;;;17.60;99.90;;;;;;6269982;22;20054;-88
2023/10/10 17:58:20;;;;;;;22.00;14.52;;;17.60;99.90;;;;;;6269021;22;20037;-87
2023/10/10 18:00:52;;;;;;;24.23;14.18;;;17.60;99.90;;;;;;6269886;22;20700;-88
2023/10/10 18:03:28;;;;;;;24.88;14.55;;;17.50;99.90;;;;;;6270358;22;20439;-87
2023/10/10 18:05:54;;;;;;;24.10;13.48;;;17.50;99.90;;;;;;6270838;22;20014;-88
2023/10/10 18:08:20;;;;;;;22.20;14.07;;;17.50;99.90;;;;;;6294682;22;20011;-88
2023/10/10 18:10:47;;;;;;;21.92;13.98;;;17.40;99.90;;;;;;6270451;22;20022;-87
2023/10/10 18:13:16;;;;;;;18.98;13.48;;;17.40;99.90;;;;;;6268683;22;20163;-87
2023/10/10 18:15:46;;;;;;;17.38;13.13;;;17.30;99.90;;;;;;6269136;22;20615;-88
2023/10/10 18:18:11;;;;;;;18.30;13.05;;;17.30;99.90;;;;;;6245339;22;20014;-88
2023/10/10 18:20:42;;;;;;;21.67;13.82;;;17.20;99.90;;;;;;6269559;22;20015;-88
2023/10/10 18:23:08;;;;;;;24.73;14.13;;;17.20;99.90;;;;;;6294432;22;20030;-86
2023/10/10 18:25:41;;;;;;;18.85;13.35;;;17.20;99.90;;;;;;6268973;22;20018;-87
2023/10/10 18:28:08;;;;;;;21.40;14.80;;;17.10;99.90;;;;;;6269234;22;20379;-88
2023/10/10 18:30:37;;;;;;;19.50;13.45;;;17.10;99.90;;;;;;6269925;22;20038;-87
2023/10/10 18:33:07;;;;;;;22.17;13.60;;;17.10;99.90;;;;;;6295760;22;20377;-88
2023/10/10 18:35:34;;;;;;;19.17;13.07;;;17.00;99.90;;;;;;6270169;22;20026;-87
2023/10/10 18:37:59;;;;;;;18.58;13.40;;;17.00;99.90;;;;;;6295120;22;20308;-88
2023/10/10 18:40:25;;;;;;;19.58;13.45;;;17.00;99.90;;;;;;6269546;22;20022;-88
2023/10/10 18:42:51;;;;;;;24.75;13.98;;;17.00;99.90;;;;;;6268593;22;20017;-88
2023/10/10 18:45:18;;;;;;;17.95;13.45;;;17.00;99.90;;;;;;6296129;22;20014;-88
2023/10/10 18:47:48;;;;;;;21.20;14.30;;;17.00;99.90;;;;;;6269242;22;20629;-88
2023/10/10 18:50:18;;;;;;;22.13;13.93;;;17.00;99.90;;;;;;6269721;22;20036;-88
2023/10/10 18:52:56;;;;;;;20.80;13.35;;;16.90;99.90;;;;;;6269069;22;20013;-88
2023/10/10 18:55:28;;;;;;;18.70;13.18;;;16.90;99.90;;;;;;6269404;22;20333;-88
2023/10/10 18:57:56;;;;;;;20.80;14.48;;;16.90;99.90;;;;;;6268586;22;20014;-88
2023/10/10 19:00:32;;;;;;;24.85;13.93;;;16.80;99.90;;;;;;6295350;22;20046;-87
2023/10/10 19:02:58;;;;;;;19.30;13.35;;;16.80;99.90;;;;;;6269297;22;20420;-88
2023/10/10 19:05:27;;;;;;;22.50;14.05;;;16.80;99.90;;;;;;6269646;22;20014;-88
2023/10/10 19:07:55;;;;;;;20.45;13.80;;;16.70;99.90;;;;;;6268584;22;20018;-88
2023/10/10 19:10:22;;;;;;;21.27;14.23;;;16.70;99.90;;;;;;6294673;22;20083;-87
2023/10/10 19:12:52;;;;;;;19.90;14.38;;;16.60;99.90;;;;;;6268450;22;20399;-87
2023/10/10 19:15:18;;;;;;;25.65;14.48;;;16.60;99.90;;;;;;6269607;22;20021;-88
2023/10/10 19:17:49;;;;;;;23.35;15.27;;;16.60;99.90;;;;;;6268395;22;20321;-87
2023/10/10 19:20:18;;;;;;;25.30;14.82;;;16.60;99.90;;;;;;6294055;22;20041;-88
2023/10/10 19:22:46;;;;;;;21.90;14.55;;;16.60;99.90;;;;;;6242520;22;20422;-88
2023/10/10 19:25:16;;;;;;;20.83;14.10;;;16.50;99.90;;;;;;6294552;22;20073;-88
2023/10/10 19:27:53;;;;;;;22.33;14.43;;;16.50;99.90;;;;;;6267643;22;20149;-87
2023/10/10 19:30:20;;;;;;;23.05;14.60;;;16.50;99.90;;;;;;6269192;22;20011;-89
2023/10/10 19:32:48;;;;;;;20.23;14.35;;;16.50;99.90;;;;;;6269536;22;20103;-88
2023/10/10 19:35:20;;;;;;;17.35;12.55;;;16.50;99.90;;;;;;6295096;22;20057;-88
2023/10/10 19:37:47;;;;;;;20.10;13.05;;;16.50;99.90;;;;;;6269745;22;20023;-87
2023/10/10 19:40:17;;;;;;;20.65;13.20;;;16.50;99.90;;;;;;6296284;22;20003;-88
2023/10/10 19:42:49;;;;;;;20.80;12.73;;;16.50;99.90;;;;;;6294703;22;20447;-88
2023/10/10 19:45:18;;;;;;;21.67;12.85;;;16.50;99.90;;;;;;6270351;22;20046;-88
2023/10/10 19:47:50;;;;;;;18.60;11.98;;;16.50;99.90;;;;;;6295016;22;20030;-87
2023/10/10 19:50:16;;;;;;;17.90;12.25;;;16.50;99.90;;;;;;6270270;22;20087;-88
2023/10/10 19:52:43;;;;;;;18.60;11.82;;;16.60;99.90;;;;;;6269284;22;20455;-87
2023/10/10 19:55:12;;;;;;;17.13;11.07;;;16.50;99.90;;;;;;6270391;22;20013;-87
2023/10/10 19:57:37;;;;;;;16.02;11.07;;;16.50;99.90;;;;;;6297176;22;20014;-87
2023/10/10 20:00:30;;;;;;;16.45;11.60;;;16.50;99.90;;;;;;6296989;22;20089;-87
2023/10/10 20:02:57;;;;;;;18.25;11.50;;;16.50;99.90;;;;;;6296530;22;20552;-87
2023/10/10 20:05:23;;;;;;;19.98;10.50;;;16.50;99.90;;;;;;6271647;22;20088;-88
2023/10/10 20:07:51;;;;;;;17.40;10.63;;;16.50;99.90;;;;;;6270642;22;20021;-87
2023/10/10 20:10:22;;;;;;;18.70;11.07;;;16.50;99.90;;;;;;6296607;22;20258;-87
2023/10/10 20:12:52;;;;;;;17.42;10.68;;;16.40;99.90;;;;;;6270053;22;20010;-87
2023/10/10 20:15:26;;;;;;;18.45;10.18;;;16.50;99.90;;;;;;6271466;22;20090;-88
2023/10/10 20:17:59;;;;;;;15.20;10.40;;;16.40;99.90;;;;;;6270596;22;20191;-88
2023/10/10 20:20:26;;;;;;;18.00;10.10;;;16.50;99.90;;;;;;6271234;22;20380;-87
2023/10/10 20:22:56;;;;;;;16.75;9.95;;;16.40;99.90;;;;;;6269378;22;20010;-88
2023/10/10 20:25:22;;;;;;;16.08;9.23;;;16.40;99.90;;;;;;6271303;22;20026;-87
2023/10/10 20:27:49;;;;;;;16.38;9.45;;;16.40;99.90;;;;;;6270580;22;20573;-89
2023/10/10 20:30:24;;;;;;;17.52;9.57;;;16.40;99.90;;;;;;6297866;22;20071;-87
2023/10/10 20:32:57;;;;;;;16.35;8.85;;;16.40;99.90;;;;;;6297096;22;20011;-88
2023/10/10 20:35:26;;;;;;;16.42;9.65;;;16.30;99.90;;;;;;6296786;22;20450;-88
2023/10/10 20:37:56;;;;;;;13.60;8.50;;;16.30;99.90;;;;;;6270829;22;20140;-88
2023/10/10 20:40:30;;;;;;;15.18;8.63;;;16.20;99.90;;;;;;6271660;22;20292;-88
2023/10/10 20:43:00;;;;;;;13.63;8.38;;;16.20;99.90;;;;;;6269543;22;20011;-88